Time;durP1;ratioP1;P1;durP2;ratioP2;P2;SDS_P1;SDS_P2;PMS_P1;PMS_P2;Temp;Humidity;BMP_temperature;BMP_pressure;BME280_temperature;BME280_humidity;BME280_pressure;Samples;Min_cycle;Max_cycle;Signal;HPM_P1;HPM_P2
2021/03/24 00:01:36;;;;;;;116.78;47.70;;;;;;;;;;5072929;28;20040;-67
2021/03/24 00:04:04;;;;;;;126.13;50.20;;;;;;;;;;5055244;28;20067;-65
2021/03/24 00:06:32;;;;;;;108.93;47.20;;;11.80;60.40;;;;;;5073084;28;20485;-64
2021/03/24 00:09:00;;;;;;;120.32;50.58;;;11.80;60.40;;;;;;5073214;28;20051;-62
2021/03/24 00:11:27;;;;;;;107.65;46.40;;;;;;;;;;5055235;28;20101;-67
2021/03/24 00:13:54;;;;;;;121.63;49.97;;;;;;;;;;5073423;28;20040;-65
2021/03/24 00:16:21;;;;;;;109.57;47.78;;;;;;;;;;5073372;28;20044;-67
2021/03/24 00:18:48;;;;;;;114.18;47.80;;;;;;;;;;5073376;28;20066;-66
2021/03/24 00:21:15;;;;;;;121.60;48.92;;;;;;;;;;5073549;28;20487;-65
2021/03/24 00:23:41;;;;;;;;;;;12.20;58.50;;;;;;5073455;28;20033;-66
2021/03/24 00:26:08;;;;;;;;;;;12.20;59.30;;;;;;5072206;28;19939;-65
2021/03/24 00:28:35;;;;;;;;;;;12.20;58.90;;;;;;5055223;28;19982;-64
2021/03/24 00:31:02;;;;;;;98.43;43.92;;;;;;;;;;5072451;28;19927;-65
2021/03/24 00:33:29;;;;;;;108.13;47.72;;;;;;;;;;5072688;28;20127;-64
2021/03/24 00:35:56;;;;;;;114.85;49.58;;;;;;;;;;5072779;28;20063;-65
2021/03/24 00:38:24;;;;;;;114.10;50.20;;;12.10;58.30;;;;;;5073454;28;20063;-65
2021/03/24 00:40:55;;;;;;;125.38;49.38;;;12.00;58.70;;;;;;5072748;28;20508;-65
2021/03/24 00:43:22;;;;;;;117.88;48.53;;;;;;;;;;5073260;28;20037;-66
2021/03/24 00:45:49;;;;;;;116.82;49.47;;;;;;;;;;5050368;28;20052;-66
2021/03/24 00:48:23;;;;;;;130.13;49.75;;;11.80;59.60;;;;;;5058671;28;20040;-64
2021/03/24 00:50:50;;;;;;;125.68;47.97;;;;;;;;;;5072208;28;20047;-64
2021/03/24 00:53:17;;;;;;;123.97;50.28;;;11.80;59.10;;;;;;5072477;28;20089;-67
2021/03/24 00:55:46;;;;;;;124.82;49.60;;;11.80;59.20;;;;;;5072175;28;20067;-66
2021/03/24 00:58:13;;;;;;;129.93;51.22;;;;;;;;;;5071923;28;20040;-68
2021/03/24 01:00:43;;;;;;;130.70;50.70;;;11.80;59.30;;;;;;5072257;28;20036;-65
2021/03/24 01:03:11;;;;;;;118.70;49.58;;;;;;;;;;5070817;28;20064;-66
2021/03/24 01:05:40;;;;;;;127.65;52.20;;;11.90;58.80;;;;;;5072123;28;20041;-67
2021/03/24 01:08:11;;;;;;;125.40;49.80;;;11.80;58.40;;;;;;5071928;28;20049;-66
2021/03/24 01:10:39;;;;;;;122.30;51.08;;;11.80;58.70;;;;;;5072362;28;20056;-65
2021/03/24 01:13:07;;;;;;;122.25;50.40;;;11.80;58.60;;;;;;5072046;28;20098;-66
2021/03/24 01:15:34;;;;;;;118.32;48.38;;;11.70;58.60;;;;;;5071383;28;20037;-65
2021/03/24 01:18:02;;;;;;;128.10;49.95;;;11.80;58.60;;;;;;5071688;28;20094;-65
2021/03/24 01:20:33;;;;;;;129.30;50.17;;;11.60;58.70;;;;;;5071496;28;20040;-65
2021/03/24 01:23:00;;;;;;;124.85;51.38;;;;;;;;;;5071622;28;20056;-64
2021/03/24 01:25:27;;;;;;;124.93;50.50;;;11.50;59.40;;;;;;5071782;28;20033;-64
2021/03/24 01:27:56;;;;;;;137.02;52.22;;;11.50;59.40;;;;;;5071924;28;20048;-63
2021/03/24 01:30:26;;;;;;;129.35;48.10;;;11.20;60.30;;;;;;5071467;28;20041;-65
2021/03/24 01:32:53;;;;;;;130.02;51.60;;;;;;;;;;5053749;28;20487;-64
2021/03/24 01:35:21;;;;;;;126.13;49.78;;;11.10;60.80;;;;;;5071464;28;20423;-65
2021/03/24 01:37:49;;;;;;;126.10;49.78;;;11.20;60.50;;;;;;5071586;28;20047;-64
2021/03/24 01:40:26;;;;;;;120.18;51.00;;;11.20;60.40;;;;;;5071633;28;20052;-63
2021/03/24 01:43:00;;;;;;;127.38;49.40;;;11.30;60.00;;;;;;5070997;28;20517;-66
2021/03/24 01:45:29;;;;;;;129.85;52.45;;;11.30;60.00;;;;;;5071592;28;20086;-65
2021/03/24 01:48:15;;;;;;;123.22;50.08;;;11.30;60.10;;;;;;5071419;28;20191;-65
2021/03/24 01:50:44;;;;;;;127.38;48.97;;;11.10;60.30;;;;;;5071817;28;20328;-67
2021/03/24 01:53:17;;;;;;;130.27;49.90;;;11.10;60.40;;;;;;5054563;28;20052;-65
2021/03/24 01:55:45;;;;;;;125.40;49.38;;;11.00;60.40;;;;;;5073128;28;20487;-66
2021/03/24 01:58:14;;;;;;;121.63;47.50;;;;;;;;;;5072572;28;20044;-66
2021/03/24 02:00:47;;;;;;;118.25;47.60;;;11.00;60.20;;;;;;5072593;28;20075;-66
2021/03/24 02:03:14;;;;;;;116.32;46.35;;;;;;;;;;5071203;28;20052;-65
2021/03/24 02:05:44;;;;;;;119.60;49.05;;;10.90;59.70;;;;;;5072059;28;20052;-66
2021/03/24 02:08:17;;;;;;;113.30;47.17;;;11.10;59.60;;;;;;5072465;28;20045;-65
2021/03/24 02:11:02;;;;;;;113.45;46.53;;;11.10;60.00;;;;;;5072413;28;20487;-66
2021/03/24 02:13:34;;;;;;;114.03;46.05;;;11.00;59.50;;;;;;5070520;28;20040;-66
2021/03/24 02:16:07;;;;;;;104.28;45.53;;;11.00;59.20;;;;;;5071332;28;20449;-65
2021/03/24 02:18:36;;;;;;;103.47;46.08;;;11.00;59.20;;;;;;5064281;28;20495;-63
2021/03/24 02:21:08;;;;;;;104.28;46.15;;;11.00;59.20;;;;;;5072055;28;20051;-66
2021/03/24 02:23:40;;;;;;;108.38;43.88;;;;;;;;;;5071986;28;20048;-65
2021/03/24 02:26:12;;;;;;;;;;;10.90;59.20;;;;;;5071752;28;20123;-66
2021/03/24 02:28:42;;;;;;;107.85;46.53;;;11.00;58.50;;;;;;5071426;28;19970;-65
2021/03/24 02:31:10;;;;;;;99.93;45.83;;;;;;;;;;5071516;28;20518;-66
2021/03/24 02:33:41;;;;;;;93.38;42.30;;;10.80;58.60;;;;;;5071864;28;20118;-64
2021/03/24 02:36:12;;;;;;;96.07;42.15;;;10.90;58.50;;;;;;5071817;28;20056;-65
2021/03/24 02:38:41;;;;;;;95.72;42.90;;;10.80;58.60;;;;;;5071269;28;20103;-65
2021/03/24 02:41:10;;;;;;;98.50;42.45;;;10.80;58.60;;;;;;5070909;28;20541;-65
2021/03/24 02:43:37;;;;;;;105.30;45.55;;;10.80;58.40;;;;;;5070937;28;20036;-67
2021/03/24 02:46:06;;;;;;;93.63;42.72;;;10.80;58.50;;;;;;5071355;28;20045;-64
2021/03/24 02:48:36;;;;;;;94.55;43.47;;;10.70;58.60;;;;;;5071099;28;20072;-64
2021/03/24 02:51:11;;;;;;;111.32;44.45;;;10.70;58.50;;;;;;5070647;28;20044;-63
2021/03/24 02:53:48;;;;;;;95.38;42.58;;;10.70;58.50;;;;;;5070802;28;20094;-67
2021/03/24 02:56:15;;;;;;;98.03;42.90;;;10.60;58.50;;;;;;5070323;28;20052;-65
2021/03/24 02:58:42;;;;;;;93.28;43.15;;;;;;;;;;5070720;28;20060;-65
2021/03/24 03:01:21;;;;;;;102.88;43.50;;;10.70;58.00;;;;;;5071214;28;20548;-65
2021/03/24 03:03:59;;;;;;;94.32;43.95;;;10.70;57.90;;;;;;5070232;28;20115;-66
2021/03/24 03:06:27;;;;;;;98.15;42.90;;;10.70;57.70;;;;;;5070870;28;20062;-66
2021/03/24 03:09:03;;;;;;;102.45;43.03;;;10.60;57.60;;;;;;5071125;28;20044;-66
2021/03/24 03:11:37;;;;;;;97.93;43.00;;;10.70;57.90;;;;;;5073902;28;20421;-66
2021/03/24 03:14:14;;;;;;;104.10;44.63;;;10.60;57.80;;;;;;5074049;28;20102;-67
2021/03/24 03:16:49;;;;;;;94.18;42.97;;;10.60;57.70;;;;;;5074370;28;20052;-65
2021/03/24 03:19:52;;;;;;;96.20;42.95;;;10.60;57.80;;;;;;5074155;28;20053;-65
2021/03/24 03:22:22;;;;;;;95.32;44.28;;;10.60;57.80;;;;;;5012009;28;20412;-66
2021/03/24 03:24:55;;;;;;;93.25;41.50;;;10.50;57.60;;;;;;5011743;28;20100;-66
2021/03/24 03:27:28;;;;;;;92.43;41.53;;;10.50;57.50;;;;;;5012171;28;20061;-65
2021/03/24 03:29:59;;;;;;;96.15;44.38;;;10.50;57.60;;;;;;4995728;28;20054;-66
2021/03/24 03:32:29;;;;;;;96.70;43.42;;;10.50;57.50;;;;;;4995583;28;20054;-65
2021/03/24 03:35:03;;;;;;;101.25;44.85;;;10.40;57.50;;;;;;5011872;28;20097;-64
2021/03/24 03:37:30;;;;;;;97.38;42.17;;;;;;;;;;5011846;28;20046;-66
2021/03/24 03:39:57;;;;;;;95.88;41.38;;;;;;;;;;5011407;28;20085;-66
2021/03/24 03:42:25;;;;;;;98.40;42.00;;;10.30;57.80;;;;;;5011982;28;20078;-66
2021/03/24 03:44:56;;;;;;;93.28;42.17;;;10.30;58.20;;;;;;5011789;28;20049;-63
2021/03/24 03:47:23;;;;;;;91.65;41.92;;;;;;;;;;4995737;28;20099;-65
2021/03/24 03:49:51;;;;;;;98.90;41.75;;;;;;;;;;5011585;28;20081;-68
2021/03/24 03:52:35;;;;;;;96.20;42.08;;;10.30;58.00;;;;;;5011715;28;20058;-65
2021/03/24 03:55:02;;;;;;;110.75;42.50;;;;;;;;;;5011187;28;20073;-66
2021/03/24 03:57:34;;;;;;;;;;;10.20;58.00;;;;;;5014290;28;20413;-66
2021/03/24 04:00:34;;;;;;;87.03;38.20;;;10.00;58.50;;;;;;5073422;28;20342;-65
2021/03/24 04:03:21;;;;;;;95.22;40.70;;;9.80;58.90;;;;;;5070645;28;20056;-66
2021/03/24 04:05:56;;;;;;;98.65;42.15;;;9.90;59.00;;;;;;5074199;28;20032;-65
2021/03/24 04:08:27;;;;;;;99.28;43.00;;;9.80;59.10;;;;;;5073196;28;20090;-64
2021/03/24 04:10:57;;;;;;;95.80;42.05;;;9.80;59.20;;;;;;5073894;28;20055;-64
2021/03/24 04:13:30;;;;;;;88.15;40.25;;;9.70;59.40;;;;;;5074525;28;20047;-64
2021/03/24 04:15:59;;;;;;;99.85;41.58;;;9.80;59.30;;;;;;5046024;28;20041;-64
2021/03/24 04:18:40;;;;;;;95.28;41.00;;;9.80;59.20;;;;;;5059577;28;20039;-64
2021/03/24 04:21:09;;;;;;;95.72;42.13;;;9.80;59.30;;;;;;5044722;28;20041;-67
2021/03/24 04:23:40;;;;;;;92.10;41.33;;;9.70;59.20;;;;;;5059912;28;20118;-65
2021/03/24 04:26:07;;;;;;;94.20;41.53;;;;;;;;;;5072997;28;20098;-63
2021/03/24 04:28:37;;;;;;;107.68;43.45;;;9.70;59.50;;;;;;5073066;28;20048;-65
2021/03/24 04:31:12;;;;;;;95.97;42.47;;;9.80;59.10;;;;;;5039387;28;20045;-63
2021/03/24 04:33:40;;;;;;;105.03;43.10;;;;;;;;;;5063003;28;20541;-66
2021/03/24 04:36:15;;;;;;;94.05;41.05;;;9.80;58.90;;;;;;5067169;28;20043;-65
2021/03/24 04:38:47;;;;;;;98.75;42.35;;;9.80;58.80;;;;;;5072443;28;20055;-64
2021/03/24 04:41:21;;;;;;;101.13;43.45;;;9.90;58.60;;;;;;5072717;28;20048;-67
2021/03/24 04:43:55;;;;;;;97.18;41.42;;;9.90;58.30;;;;;;5072409;28;20037;-66
2021/03/24 04:46:27;;;;;;;97.07;42.20;;;9.90;58.30;;;;;;5071256;28;20052;-66
2021/03/24 04:49:02;;;;;;;96.28;42.33;;;9.90;58.40;;;;;;5052288;28;20041;-66
2021/03/24 04:51:35;;;;;;;95.75;42.65;;;9.90;58.30;;;;;;5067190;28;20072;-67
2021/03/24 04:54:11;;;;;;;95.13;41.78;;;9.80;58.60;;;;;;5072599;28;20099;-68
2021/03/24 04:56:40;;;;;;;97.35;43.40;;;9.80;58.50;;;;;;5071890;28;20497;-67
2021/03/24 04:59:13;;;;;;;89.30;41.63;;;9.80;58.80;;;;;;5072519;28;20040;-66
2021/03/24 05:01:47;;;;;;;109.53;45.50;;;9.80;58.50;;;;;;5054032;28;20051;-66
2021/03/24 05:04:41;;;;;;;104.88;43.45;;;9.80;58.60;;;;;;5071829;28;20087;-66
2021/03/24 05:07:14;;;;;;;93.38;42.28;;;9.70;58.60;;;;;;5071284;28;20086;-66
2021/03/24 05:09:45;;;;;;;93.95;43.28;;;9.80;58.50;;;;;;5072195;28;20045;-68
2021/03/24 05:12:12;;;;;;;99.30;45.10;;;;;;;;;;5053771;28;20433;-64
2021/03/24 05:14:56;;;;;;;100.43;43.42;;;9.70;58.40;;;;;;5071978;28;20487;-65
2021/03/24 05:17:29;;;;;;;103.78;42.72;;;9.60;58.70;;;;;;5067226;28;20048;-66
2021/03/24 05:20:05;;;;;;;93.95;39.75;;;9.60;58.80;;;;;;5063351;28;20055;-64
2021/03/24 05:22:39;;;;;;;95.10;40.60;;;9.50;59.10;;;;;;5071136;28;20079;-67
2021/03/24 05:25:16;;;;;;;101.88;42.38;;;9.50;59.30;;;;;;5071867;28;20049;-66
2021/03/24 05:27:48;;;;;;;103.28;41.40;;;9.50;59.30;;;;;;5071551;28;20605;-66
2021/03/24 05:30:24;;;;;;;101.70;42.70;;;9.50;59.30;;;;;;5071691;28;20068;-68
2021/03/24 05:33:18;;;;;;;109.50;45.08;;;9.50;59.00;;;;;;5071098;28;20069;-67
2021/03/24 05:35:53;;;;;;;98.05;40.58;;;9.50;59.00;;;;;;5009346;28;20049;-65
2021/03/24 05:38:41;;;;;;;100.45;40.40;;;9.40;59.40;;;;;;5009487;28;20108;-67
2021/03/24 05:41:24;;;;;;;102.07;41.88;;;9.40;59.50;;;;;;5009430;28;20054;-66
2021/03/24 05:44:19;;;;;;;100.53;40.97;;;9.40;59.50;;;;;;4993363;28;20041;-65
2021/03/24 05:47:04;;;;;;;97.18;42.17;;;9.40;59.50;;;;;;5009193;28;20058;-66
2021/03/24 05:49:49;;;;;;;95.22;40.50;;;9.40;59.70;;;;;;4992831;28;20050;-67
2021/03/24 05:52:22;;;;;;;96.32;42.28;;;9.30;59.70;;;;;;5009307;28;20050;-67
2021/03/24 05:55:01;;;;;;;93.90;41.10;;;9.30;59.80;;;;;;5009356;28;20038;-65
2021/03/24 05:57:38;;;;;;;99.85;40.50;;;9.30;59.70;;;;;;5009523;28;20073;-67
2021/03/24 06:00:31;;;;;;;104.63;42.00;;;9.40;59.60;;;;;;5009220;28;20120;-67
2021/03/24 06:03:24;;;;;;;97.28;40.63;;;9.30;59.50;;;;;;5003935;28;20046;-66
2021/03/24 06:06:15;;;;;;;97.15;39.47;;;9.40;59.50;;;;;;4991954;28;20546;-65
2021/03/24 06:09:01;;;;;;;96.97;40.28;;;9.40;59.70;;;;;;5008766;28;20080;-65
2021/03/24 06:11:54;;;;;;;98.85;40.00;;;9.40;59.70;;;;;;4992774;28;20049;-67
2021/03/24 06:14:55;;;;;;;99.82;40.10;;;9.40;59.90;;;;;;5066654;28;20048;-65
2021/03/24 06:17:31;;;;;;;93.15;40.28;;;9.50;60.00;;;;;;5028435;28;20466;-66
2021/03/24 06:20:10;;;;;;;92.93;39.42;;;9.60;59.60;;;;;;5027873;28;20053;-63
2021/03/24 06:23:08;;;;;;;89.97;39.67;;;9.70;59.20;;;;;;5017434;28;20053;-64
2021/03/24 06:25:43;;;;;;;93.35;38.38;;;9.70;59.10;;;;;;5028228;28;20412;-66
2021/03/24 06:29:00;;;;;;;93.10;39.05;;;9.60;59.00;;;;;;5028419;28;20057;-66
2021/03/24 06:31:55;;;;;;;97.80;42.78;;;9.60;59.20;;;;;;4934202;28;20059;-67
2021/03/24 06:34:38;;;;;;;85.55;39.13;;;9.50;59.00;;;;;;4930899;29;20096;-66
2021/03/24 06:37:35;;;;;;;88.97;37.35;;;9.70;59.30;;;;;;4931505;29;20051;-66
2021/03/24 06:40:26;;;;;;;79.88;36.85;;;9.50;59.70;;;;;;4930906;29;20130;-66
2021/03/24 06:42:59;;;;;;;92.25;39.28;;;9.70;59.40;;;;;;4234266;29;10000702;-65
2021/03/24 06:45:27;;;;;;;93.03;39.15;;;;;;;;;;4931177;29;20138;-65
2021/03/24 06:48:04;;;;;;;89.80;36.70;;;9.90;58.80;;;;;;4931869;29;20063;-65
2021/03/24 06:51:16;;;;;;;89.97;38.05;;;9.90;58.40;;;;;;4932538;29;20083;-65
2021/03/24 06:54:08;;;;;;;81.85;37.38;;;9.90;58.80;;;;;;4935191;29;20055;-68
2021/03/24 06:56:35;;;;;;;84.18;39.20;;;;;;;;;;4951505;29;20066;-66
2021/03/24 06:59:27;;;;;;;86.50;38.63;;;10.00;58.30;;;;;;4951133;29;20047;-66
2021/03/24 07:02:13;;;;;;;90.03;38.60;;;10.30;58.40;;;;;;4960717;28;20065;-66
2021/03/24 07:05:00;;;;;;;83.22;36.75;;;10.40;58.00;;;;;;4970281;28;20081;-67
2021/03/24 07:07:45;;;;;;;79.63;37.00;;;10.40;57.40;;;;;;5017652;28;20053;-67
2021/03/24 07:10:41;;;;;;;82.78;37.28;;;10.60;57.90;;;;;;5013091;28;20127;-66
2021/03/24 07:13:46;;;;;;;75.55;34.42;;;10.70;57.30;;;;;;5072240;28;20044;-67
2021/03/24 07:16:21;;;;;;;82.22;35.10;;;10.70;56.40;;;;;;5072218;28;20036;-66
2021/03/24 07:19:19;;;;;;;78.25;35.38;;;10.90;56.50;;;;;;5072517;28;20410;-67
2021/03/24 07:21:46;;;;;;;78.82;34.10;;;;;;;;;;5072531;28;20044;-68
2021/03/24 07:24:13;;;;;;;79.82;37.28;;;;;;;;;;5072572;28;20047;-66
2021/03/24 07:26:54;;;;;;;74.20;34.67;;;10.90;56.80;;;;;;5071712;28;20041;-66
2021/03/24 07:29:54;;;;;;;84.85;36.45;;;11.00;56.50;;;;;;5071204;28;20044;-67
2021/03/24 07:32:46;;;;;;;81.15;33.70;;;11.20;56.30;;;;;;5071055;28;20575;-65
2021/03/24 07:35:14;;;;;;;82.35;36.15;;;;;;;;;;5009040;28;20053;-66
2021/03/24 07:38:07;;;;;;;84.43;37.65;;;11.60;55.50;;;;;;5009381;28;20057;-67
2021/03/24 07:40:34;;;;;;;77.75;36.28;;;;;;;;;;5008705;28;20069;-67
2021/03/24 07:43:19;;;;;;;71.95;32.75;;;12.10;53.90;;;;;;4991652;28;20050;-64
2021/03/24 07:46:10;;;;;;;87.78;38.08;;;12.00;54.10;;;;;;5008384;28;20057;-66
2021/03/24 07:48:54;;;;;;;87.93;37.28;;;12.10;53.90;;;;;;5011900;28;20531;-67
2021/03/24 07:51:58;;;;;;;80.93;37.22;;;12.20;54.20;;;;;;5010727;28;20408;-67
2021/03/24 07:54:47;;;;;;;79.78;35.40;;;12.40;53.40;;;;;;5010998;28;20077;-67
2021/03/24 07:57:19;;;;;;;81.20;34.38;;;12.60;52.70;;;;;;5011639;28;20056;-66
2021/03/24 08:00:18;;;;;;;75.65;33.70;;;12.60;52.10;;;;;;5011610;28;20061;-66
2021/03/24 08:03:06;;;;;;;81.72;36.53;;;12.70;52.10;;;;;;5011236;28;20046;-66
2021/03/24 08:06:02;;;;;;;78.30;35.97;;;12.90;51.90;;;;;;5010904;28;20118;-68
2021/03/24 08:09:05;;;;;;;80.00;37.72;;;13.10;51.80;;;;;;5010858;28;20050;-66
2021/03/24 08:11:32;;;;;;;81.35;34.65;;;;;;;;;;4959752;28;20073;-65
2021/03/24 08:14:16;;;;;;;84.45;36.13;;;13.00;51.70;;;;;;4990966;28;20139;-66
2021/03/24 08:16:59;;;;;;;79.65;36.80;;;12.70;52.10;;;;;;4974347;28;20105;-68
2021/03/24 08:19:54;;;;;;;83.57;37.10;;;12.60;52.70;;;;;;4990941;28;20113;-66
2021/03/24 08:22:39;;;;;;;84.60;35.92;;;12.60;53.00;;;;;;4990464;28;20065;-67
2021/03/24 08:25:29;;;;;;;78.70;36.25;;;12.60;53.30;;;;;;4990719;28;20054;-68
2021/03/24 08:28:40;;;;;;;78.80;35.00;;;12.80;53.10;;;;;;4947740;28;20054;-66
2021/03/24 08:31:25;;;;;;;88.57;35.00;;;12.90;52.40;;;;;;4989873;28;20054;-66
2021/03/24 08:34:03;;;;;;;72.15;32.33;;;13.00;52.50;;;;;;4974586;28;20061;-66
2021/03/24 08:36:56;;;;;;;84.13;39.95;;;13.20;52.60;;;;;;4974121;28;20046;-67
2021/03/24 08:39:31;;;;;;;85.60;38.40;;;13.30;52.30;;;;;;4990426;28;20050;-69
2021/03/24 08:42:26;;;;;;;87.50;37.22;;;13.10;52.40;;;;;;4974407;28;20050;-67
2021/03/24 08:44:59;;;;;;;95.55;38.72;;;13.10;52.90;;;;;;4973721;28;20054;-67
2021/03/24 08:47:33;;;;;;;81.65;37.03;;;13.30;52.10;;;;;;5014774;28;20055;-65
2021/03/24 08:50:01;;;;;;;91.22;38.83;;;13.50;52.10;;;;;;5068663;28;20041;-65
2021/03/24 08:52:56;;;;;;;75.40;35.15;;;13.50;51.70;;;;;;5071173;28;20109;-66
2021/03/24 08:55:52;;;;;;;81.75;37.40;;;13.60;51.70;;;;;;5071512;28;20470;-66
2021/03/24 08:58:44;;;;;;;82.38;36.53;;;13.90;51.10;;;;;;5071056;28;20044;-67
2021/03/24 09:01:48;;;;;;;86.03;37.47;;;14.00;50.80;;;;;;4717642;28;10000246;-68
2021/03/24 09:04:52;;;;;;;83.70;38.92;;;14.00;50.60;;;;;;5046001;28;20063;-66
2021/03/24 09:07:37;;;;;;;87.90;37.28;;;14.10;50.30;;;;;;5068356;28;20055;-67
2021/03/24 09:10:11;;;;;;;85.87;38.07;;;14.20;51.20;;;;;;5069391;28;20495;-67
2021/03/24 09:12:47;;;;;;;85.75;37.00;;;14.30;49.80;;;;;;5068695;28;20565;-66
2021/03/24 09:15:35;;;;;;;81.72;36.33;;;14.30;49.90;;;;;;5068647;28;20557;-69
2021/03/24 09:18:02;;;;;;;88.43;37.03;;;;;;;;;;5037715;28;20068;-67
2021/03/24 09:20:35;;;;;;;82.05;36.20;;;14.50;49.50;;;;;;5060546;28;20049;-69
2021/03/24 09:23:28;;;;;;;82.13;35.70;;;14.70;48.90;;;;;;5037842;28;20053;-67
2021/03/24 09:26:25;;;;;;;82.18;35.80;;;14.90;48.80;;;;;;5047691;28;20127;-66
2021/03/24 09:29:11;;;;;;;81.80;36.45;;;14.80;48.90;;;;;;5070900;28;20040;-68
2021/03/24 09:31:56;;;;;;;88.22;35.63;;;15.00;47.80;;;;;;5043757;28;20091;-67
2021/03/24 09:34:56;;;;;;;79.10;34.83;;;14.90;48.10;;;;;;5059393;28;20053;-66
2021/03/24 09:37:42;;;;;;;88.28;36.85;;;15.00;48.30;;;;;;5070829;28;20040;-68
2021/03/24 09:40:33;;;;;;;84.28;37.13;;;14.90;47.30;;;;;;5040705;28;20049;-69
2021/03/24 09:43:04;;;;;;;80.05;36.45;;;15.20;47.60;;;;;;5061631;28;20052;-66
2021/03/24 09:45:37;;;;;;;80.40;34.80;;;14.90;47.20;;;;;;5053397;28;20063;-67
2021/03/24 09:48:19;;;;;;;84.75;34.22;;;15.20;47.60;;;;;;5070799;28;20041;-66
2021/03/24 09:50:55;;;;;;;86.45;35.50;;;15.40;47.10;;;;;;5070321;28;20040;-68
2021/03/24 09:53:26;;;;;;;84.53;35.65;;;15.50;47.00;;;;;;5070242;28;20048;-67
2021/03/24 09:55:56;;;;;;;81.30;33.80;;;15.60;46.80;;;;;;5051948;28;20057;-67
2021/03/24 09:58:32;;;;;;;72.78;33.05;;;;;;;;;;5069814;28;20437;-68
2021/03/24 10:01:04;;;;;;;77.13;33.60;;;15.80;46.00;;;;;;5065065;28;20131;-68
2021/03/24 10:04:07;;;;;;;77.90;33.40;;;15.80;45.50;;;;;;5049025;28;20137;-69
2021/03/24 10:06:55;;;;;;;78.57;33.70;;;16.00;45.60;;;;;;5070325;28;20490;-69
2021/03/24 10:09:34;;;;;;;70.45;32.90;;;16.00;46.20;;;;;;5070574;28;20044;-67
2021/03/24 10:12:16;;;;;;;67.07;30.02;;;16.30;44.20;;;;;;5055585;28;20056;-68
2021/03/24 10:15:02;;;;;;;67.82;30.27;;;16.30;44.40;;;;;;5038662;28;20057;-67
2021/03/24 10:17:35;;;;;;;66.60;28.67;;;16.30;43.90;;;;;;5068645;28;20179;-67
2021/03/24 10:20:32;;;;;;;75.32;31.25;;;16.20;44.80;;;;;;5073606;28;20425;-67
2021/03/24 10:23:04;;;;;;;66.70;28.20;;;16.20;43.70;;;;;;5073017;28;20110;-65
2021/03/24 10:25:42;;;;;;;73.47;30.02;;;16.20;44.20;;;;;;5062466;28;20047;-67
2021/03/24 10:28:25;;;;;;;68.88;29.15;;;16.40;44.30;;;;;;5061803;28;20483;-67
2021/03/24 10:31:01;;;;;;;70.88;30.92;;;16.70;43.60;;;;;;5035696;28;20123;-69
2021/03/24 10:33:38;;;;;;;76.72;31.67;;;16.90;43.10;;;;;;5043621;28;20048;-67
2021/03/24 10:36:30;;;;;;;66.13;30.23;;;17.10;42.60;;;;;;5036023;28;20056;-67
2021/03/24 10:38:57;;;;;;;66.00;27.33;;;;;;;;;;5034671;28;20049;-68
2021/03/24 10:41:28;;;;;;;65.03;25.45;;;17.40;40.70;;;;;;5036014;28;20051;-67
2021/03/24 10:44:04;;;;;;;67.47;27.20;;;17.30;40.50;;;;;;5053596;28;20353;-67
2021/03/24 10:46:37;;;;;;;;;;;17.30;40.60;;;;;;5040544;28;20059;-66
2021/03/24 10:49:14;;;;;;;62.05;25.52;;;17.80;39.40;;;;;;5053217;28;19925;-66
2021/03/24 10:51:53;;;;;;;56.40;23.02;;;18.30;37.80;;;;;;5053363;28;20052;-65
2021/03/24 10:54:30;;;;;;;63.78;26.33;;;18.40;38.30;;;;;;5034168;28;20045;-66
2021/03/24 10:57:27;;;;;;;49.90;23.30;;;18.50;37.50;;;;;;5064505;28;20049;-66
2021/03/24 11:00:22;;;;;;;45.72;20.27;;;19.00;37.90;;;;;;5023234;28;20052;-66
2021/03/24 11:02:57;;;;;;;49.05;23.23;;;19.20;35.60;;;;;;5061940;28;20102;-69
2021/03/24 11:05:29;;;;;;;46.22;21.58;;;19.20;36.30;;;;;;5070092;28;20052;-67
2021/03/24 11:08:02;;;;;;;46.38;18.63;;;19.80;34.60;;;;;;5073195;28;20045;-65
2021/03/24 11:10:55;;;;;;;52.03;22.35;;;19.70;35.00;;;;;;5072634;28;20044;-67
2021/03/24 11:13:31;;;;;;;49.55;22.30;;;19.90;35.80;;;;;;5073309;28;20056;-64
2021/03/24 11:16:03;;;;;;;47.60;21.52;;;20.10;35.70;;;;;;5062305;28;20071;-65
2021/03/24 11:18:50;;;;;;;57.13;23.73;;;20.50;34.30;;;;;;5052592;28;20477;-67
2021/03/24 11:21:31;;;;;;;51.00;23.38;;;20.40;33.40;;;;;;5063745;28;20479;-67
2021/03/24 11:24:11;;;;;;;44.20;21.85;;;20.30;34.00;;;;;;5054937;28;20155;-66
2021/03/24 11:27:03;;;;;;;48.83;20.83;;;20.60;33.80;;;;;;5053383;28;20552;-67
2021/03/24 11:29:32;;;;;;;45.95;22.05;;;20.50;33.80;;;;;;5071168;28;20321;-67
2021/03/24 11:32:11;;;;;;;41.42;20.48;;;20.50;34.80;;;;;;5051283;28;20434;-65
2021/03/24 11:35:05;;;;;;;42.20;21.52;;;20.50;33.80;;;;;;5051205;28;20056;-66
2021/03/24 11:37:44;;;;;;;49.30;22.25;;;20.50;33.10;;;;;;5071958;28;20067;-65
2021/03/24 11:40:36;;;;;;;48.00;23.38;;;20.50;34.40;;;;;;5072915;28;20048;-68
2021/03/24 11:43:08;;;;;;;46.83;21.30;;;20.60;34.50;;;;;;5073101;28;20061;-67
2021/03/24 11:45:45;;;;;;;43.70;22.42;;;21.00;34.10;;;;;;5072962;28;20577;-67
2021/03/24 11:48:47;;;;;;;40.72;20.00;;;21.50;33.00;;;;;;5073256;28;20060;-67
2021/03/24 11:51:36;;;;;;;44.05;19.90;;;21.50;31.90;;;;;;5072341;28;20509;-64
2021/03/24 11:54:15;;;;;;;41.63;19.23;;;21.50;32.10;;;;;;5054969;28;20052;-67
2021/03/24 11:56:55;;;;;;;42.20;20.35;;;21.40;31.90;;;;;;5072691;28;20174;-66
2021/03/24 11:59:52;;;;;;;39.30;20.23;;;21.30;31.90;;;;;;5072074;28;20048;-64
2021/03/24 12:03:10;;;;;;;43.78;19.38;;;21.20;31.70;;;;;;5037386;28;20045;-66
2021/03/24 12:05:43;;;;;;;38.72;19.48;;;21.00;32.00;;;;;;5029353;28;20057;-69
2021/03/24 12:08:32;;;;;;;40.13;20.63;;;21.00;32.00;;;;;;5029112;28;20061;-68
2021/03/24 12:11:14;;;;;;;39.90;20.50;;;21.20;31.40;;;;;;5030084;28;20091;-67
2021/03/24 12:13:41;;;;;;;44.10;19.58;;;21.20;32.60;;;;;;5030060;28;20041;-66
2021/03/24 12:16:12;;;;;;;47.60;21.85;;;21.20;31.40;;;;;;5029686;28;20448;-70
2021/03/24 12:18:53;;;;;;;45.20;21.95;;;21.10;32.00;;;;;;5029581;28;20052;-68
2021/03/24 12:21:30;;;;;;;46.28;22.45;;;21.00;32.20;;;;;;5029353;28;20120;-70
2021/03/24 12:24:00;;;;;;;47.15;23.17;;;21.00;32.30;;;;;;5029682;28;20045;-70
2021/03/24 12:26:39;;;;;;;45.72;22.92;;;21.10;33.00;;;;;;5013573;28;20360;-70
2021/03/24 12:29:26;;;;;;;46.28;22.00;;;20.90;33.70;;;;;;5029513;28;20057;-66
2021/03/24 12:31:58;;;;;;;45.90;23.60;;;21.00;33.40;;;;;;4326465;28;10000819;-66
2021/03/24 12:34:28;;;;;;;53.97;22.92;;;21.20;33.50;;;;;;5026920;28;20125;-64
2021/03/24 12:36:58;;;;;;;54.85;24.20;;;21.40;32.70;;;;;;5026936;28;20495;-65
2021/03/24 12:39:39;;;;;;;44.30;22.83;;;21.50;32.90;;;;;;5010485;28;20053;-66
2021/03/24 12:42:18;;;;;;;49.47;24.55;;;21.70;32.00;;;;;;5046780;28;20071;-66
2021/03/24 12:44:46;;;;;;;50.35;22.63;;;21.80;32.00;;;;;;5030611;28;20057;-66
2021/03/24 12:47:49;;;;;;;44.45;21.55;;;21.70;32.30;;;;;;5069532;28;20051;-65
2021/03/24 12:50:25;;;;;;;44.50;21.13;;;21.20;32.60;;;;;;5026023;28;20111;-69
2021/03/24 12:53:07;;;;;;;46.40;23.33;;;21.20;32.60;;;;;;5026605;28;20089;-66
2021/03/24 12:55:36;;;;;;;44.28;22.88;;;21.50;32.20;;;;;;5013685;28;20048;-66
2021/03/24 12:58:24;;;;;;;42.63;20.60;;;21.60;31.70;;;;;;5029043;28;20046;-67
2021/03/24 13:01:38;;;;;;;49.90;22.52;;;21.60;32.40;;;;;;5012052;28;20073;-65
2021/03/24 13:04:11;;;;;;;43.70;21.05;;;21.60;32.30;;;;;;4969888;28;20174;-67
2021/03/24 13:06:38;;;;;;;50.08;21.98;;;21.50;32.70;;;;;;4969618;28;20055;-66
2021/03/24 13:09:17;;;;;;;43.97;21.27;;;21.50;32.30;;;;;;4953247;28;20055;-64
2021/03/24 13:12:14;;;;;;;43.10;20.77;;;21.60;31.60;;;;;;4970126;28;20429;-64
2021/03/24 13:15:02;;;;;;;38.55;18.02;;;21.70;31.00;;;;;;4944524;28;20043;-66
2021/03/24 13:17:34;;;;;;;43.47;20.63;;;21.60;31.10;;;;;;4970301;28;20042;-66
2021/03/24 13:20:15;;;;;;;43.50;21.08;;;21.70;31.60;;;;;;4969601;28;20059;-65
2021/03/24 13:22:59;;;;;;;43.90;20.95;;;22.00;29.90;;;;;;4970265;28;20042;-64
2021/03/24 13:25:41;;;;;;;38.78;19.70;;;22.00;30.70;;;;;;4953341;28;20421;-66
2021/03/24 13:28:26;;;;;;;40.03;20.48;;;22.40;29.70;;;;;;4953793;28;20057;-66
2021/03/24 13:31:00;;;;;;;46.55;21.75;;;22.40;30.50;;;;;;4970612;28;20051;-65
2021/03/24 13:33:37;;;;;;;38.83;19.38;;;22.40;30.40;;;;;;4956653;28;20059;-66
2021/03/24 13:36:21;;;;;;;41.90;20.52;;;22.30;30.80;;;;;;4969705;28;20129;-64
2021/03/24 13:39:01;;;;;;;50.63;21.35;;;22.30;29.90;;;;;;4969635;28;20102;-65